Oelwein, IA (50662)

21:31 CST le 01 Mars 2015 (GMT -0600)
Maplewood Dr | Change Station
CLOSE
Current Station
Stations météorologiques personnelles
Location: Oelwein, IA
Altitude: 1135 ft
Stations météo à proximité

Alt. 1135 ft 42.69 °N, 91.91 °W | Updated 16 seconds ago

Ciel dégagé
Ciel dégagé
16.9 ° F
Paraît 11 ° F
N
3.6
Vent Variable Vent de Ouest
Gusts 3.6 mph

Aujourd'hui
Haut(e) -- | Bas -- ° F
--% Risque de précip.
Hier
Haut(e) -- | Bas -- ° F
Precip. -- pouce
6:43 AM 5:56 PM
Lune gibbeuse croissante, 89% visible
Pression 30.35 pouce
Visibilité 10.0 Miles terrestres
Nuages Ciel dégagé
Refroidissement éolien 11 ° F
Point de rosée 11 ° F
Humidité 78%
Précipitations 0.00 pouce
Profondeur de la couche neigeuse Non disponible.
UV 0 sur 12
Pollen .40 sur 12
Qualité de l'air Non disponible.
Flu Activity Non disponible.
METAR KOLZ 020315Z AUTO 24008KT 10SM CLR M10/M13 A3035 RMK AO2

More Conditions Fewer Conditions

Pression 30.35 pouce
Visibilité 10.0 Miles terrestres
Nuages Ciel dégagé
Refroidissement éolien 11 ° F
Point de rosée 11 ° F
Humidité 78%
Précipitations 0.00 pouce
Profondeur de la couche neigeuse Non disponible.
UV 0 sur 12
Pollen .40 sur 12
Qualité de l'air Non disponible.
Flu Activity Non disponible.
METAR KOLZ 020315Z AUTO 24008KT 10SM CLR M10/M13 A3035 RMK AO2

More Conditions Fewer Conditions

10-Day Weather Forecast

Almanac

Astronomie

Mar. 01, 2015 Lever Coucher
Temps réel
Crépuscule civil
Crépuscule nautique
Crépuscule astronomique
Lune
Durée de lumière visible
Longueur du jour
Tomorrow will be .
, % of the Moon is Illuminated

Extrêmes aujourd'hui

State Highs State Lows

Community

WunderPhotos

Upload Photos

1,801,717 Photos téléchargées !

WunderBlogs® & News

Nearby

Qualité de l'air

  Qualité de l'air Indice de la qualité de l'air Polluant
Not available.

Épaisseur de neige

Station Depth Altitude

Activité sismique

Ville Distance Mag. Time & Date
Minimum magnitude displayed is 2.5.

Températures des eaux côtières

Lieu Température

Stations météo à proximité